Time;durP1;ratioP1;P1;durP2;ratioP2;P2;SDS_P1;SDS_P2;PMS_P1;PMS_P2;Temp;Humidity;BMP_temperature;BMP_pressure;BME280_temperature;BME280_humidity;BME280_pressure;Samples;Min_cycle;Max_cycle;Signal;HPM_P1;HPM_P2
2021/04/04 00:01:36;;;;;;;6.33;5.00;;;6.80;93.20;;;;;;5039032;28;20217;-63
2021/04/04 00:04:03;;;;;;;8.13;5.63;;;6.70;93.20;;;;;;5053227;28;20515;-62
2021/04/04 00:06:28;;;;;;;9.23;5.30;;;6.70;93.10;;;;;;5043850;28;20219;-62
2021/04/04 00:08:54;;;;;;;5.97;5.37;;;6.70;93.10;;;;;;5032656;28;20489;-62
2021/04/04 00:11:20;;;;;;;12.00;4.93;;;6.60;93.00;;;;;;5033480;28;20562;-62
2021/04/04 00:13:45;;;;;;;5.77;5.17;;;6.60;93.10;;;;;;5015683;28;20183;-62
2021/04/04 00:16:11;;;;;;;7.27;4.00;;;6.60;93.10;;;;;;5032931;28;20194;-63
2021/04/04 00:18:37;;;;;;;6.17;4.77;;;6.60;92.90;;;;;;5033069;28;20201;-62
2021/04/04 00:21:03;;;;;;;7.63;5.30;;;6.40;92.90;;;;;;5032681;28;20171;-63
2021/04/04 00:23:29;;;;;;;4.40;3.13;;;6.30;93.10;;;;;;5032718;28;20490;-63
2021/04/04 00:25:54;;;;;;;6.70;3.50;;;6.30;93.40;;;;;;5033269;28;20461;-64
2021/04/04 00:28:20;;;;;;;5.67;4.13;;;6.30;93.40;;;;;;5034982;28;20175;-62
2021/04/04 00:30:46;;;;;;;7.30;4.07;;;6.30;93.30;;;;;;5033723;28;20186;-62
2021/04/04 00:33:11;;;;;;;5.43;4.03;;;6.30;93.40;;;;;;5033156;28;20662;-62
2021/04/04 00:35:37;;;;;;;5.20;3.57;;;6.30;93.30;;;;;;5032630;28;20191;-64
2021/04/04 00:38:03;;;;;;;6.43;4.20;;;6.40;93.20;;;;;;5032402;28;20195;-63
2021/04/04 00:40:33;;;;;;;5.13;3.70;;;6.30;93.30;;;;;;5032880;28;20421;-62
2021/04/04 00:42:59;;;;;;;4.97;4.43;;;6.40;93.30;;;;;;5015259;28;20433;-62
2021/04/04 00:45:28;;;;;;;7.97;3.40;;;6.40;93.40;;;;;;5032714;28;20464;-63
2021/04/04 00:47:54;;;;;;;6.80;4.07;;;6.30;93.30;;;;;;5033032;28;20398;-63
2021/04/04 00:50:23;;;;;;;4.63;3.63;;;6.20;93.50;;;;;;5033000;28;20410;-62
2021/04/04 00:52:51;;;;;;;6.03;4.20;;;6.20;93.80;;;;;;5032316;28;20444;-63
2021/04/04 00:55:17;;;;;;;7.03;3.70;;;6.20;94.00;;;;;;5032574;28;20489;-62
2021/04/04 00:57:43;;;;;;;4.87;4.03;;;6.20;94.20;;;;;;5033391;28;20488;-62
2021/04/04 01:00:13;;;;;;;8.00;4.20;;;6.10;94.10;;;;;;5033216;28;20258;-62
2021/04/04 01:02:41;;;;;;;6.47;4.40;;;6.20;94.50;;;;;;5033112;28;20895;-62
2021/04/04 01:05:10;;;;;;;8.17;4.43;;;6.20;94.80;;;;;;5033134;28;20401;-62
2021/04/04 01:07:35;;;;;;;8.47;4.63;;;6.20;94.90;;;;;;5032066;28;20480;-63
2021/04/04 01:10:04;;;;;;;5.57;4.33;;;6.10;95.00;;;;;;5032610;28;20397;-62
2021/04/04 01:12:52;;;;;;;10.87;5.50;;;6.10;95.20;;;;;;5032627;28;20869;-62
2021/04/04 01:15:41;;;;;;;7.37;4.17;;;6.00;95.40;;;;;;5033255;28;20511;-63
2021/04/04 01:18:18;;;;;;;7.20;4.57;;;6.10;95.50;;;;;;5033002;28;20919;-62
2021/04/04 01:20:51;;;;;;;5.60;3.70;;;5.90;95.60;;;;;;5034740;28;20420;-62
2021/04/04 01:23:54;;;;;;;6.00;4.40;;;6.00;95.60;;;;;;5036023;28;20401;-62
2021/04/04 01:26:45;;;;;;;5.03;3.80;;;6.00;95.70;;;;;;5036170;28;20568;-63
2021/04/04 01:29:11;;;;;;;5.23;4.10;;;5.90;96.20;;;;;;5035924;28;20777;-62
2021/04/04 01:31:38;;;;;;;4.63;3.77;;;5.90;96.20;;;;;;5036142;28;20410;-62
2021/04/04 01:34:05;;;;;;;5.17;4.23;;;5.90;96.20;;;;;;5035766;28;20920;-62
2021/04/04 01:36:35;;;;;;;8.50;4.83;;;5.90;96.40;;;;;;5035538;28;20465;-63
2021/04/04 01:39:05;;;;;;;6.73;4.27;;;6.00;96.30;;;;;;5035694;28;20413;-62
2021/04/04 01:41:33;;;;;;;8.30;4.63;;;5.90;96.50;;;;;;5036384;28;20390;-62
2021/04/04 01:44:05;;;;;;;6.20;4.27;;;5.80;97.00;;;;;;5036206;28;20405;-62
2021/04/04 01:46:32;;;;;;;6.43;5.03;;;5.80;96.90;;;;;;5035511;28;20423;-62
2021/04/04 01:48:58;;;;;;;6.03;4.60;;;5.80;96.90;;;;;;5035857;28;20406;-62
2021/04/04 01:51:25;;;;;;;7.53;5.23;;;5.80;97.10;;;;;;5035776;28;20409;-63
2021/04/04 01:53:52;;;;;;;10.40;4.90;;;5.80;97.00;;;;;;5035450;28;20402;-62
2021/04/04 01:56:18;;;;;;;7.53;4.50;;;5.70;97.00;;;;;;5035548;28;20547;-62
2021/04/04 01:58:45;;;;;;;6.40;4.13;;;5.60;97.40;;;;;;5035638;28;20398;-62
2021/04/04 02:01:12;;;;;;;5.17;4.67;;;5.50;97.50;;;;;;5035605;28;20406;-62
2021/04/04 02:03:38;;;;;;;10.17;4.40;;;5.50;97.60;;;;;;5035349;28;20906;-62
2021/04/04 02:06:05;;;;;;;6.83;5.60;;;5.50;97.70;;;;;;5035154;28;20462;-63
2021/04/04 02:08:31;;;;;;;6.03;5.43;;;5.50;97.90;;;;;;5034606;28;20409;-62
2021/04/04 02:10:58;;;;;;;5.30;4.30;;;5.50;98.20;;;;;;5035120;28;20485;-62
2021/04/04 02:13:26;;;;;;;8.20;5.30;;;5.50;98.00;;;;;;5035121;28;20402;-62
2021/04/04 02:15:55;;;;;;;8.03;5.50;;;5.50;98.20;;;;;;5035945;28;20461;-62
2021/04/04 02:18:21;;;;;;;9.23;4.83;;;5.40;98.30;;;;;;5035037;28;20485;-62
2021/04/04 02:20:48;;;;;;;6.70;5.93;;;5.40;98.20;;;;;;5035195;28;20430;-62
2021/04/04 02:23:15;;;;;;;5.63;4.80;;;5.40;98.30;;;;;;5034732;28;20172;-63
2021/04/04 02:25:41;;;;;;;6.70;4.73;;;5.50;98.20;;;;;;5034818;28;20479;-62
2021/04/04 02:28:08;;;;;;;6.20;5.47;;;5.50;98.00;;;;;;5037341;28;20927;-62
2021/04/04 02:30:34;;;;;;;5.40;4.90;;;5.50;98.00;;;;;;5034365;28;20535;-62
2021/04/04 02:33:02;;;;;;;7.17;4.90;;;5.50;97.80;;;;;;5034721;28;20413;-62
2021/04/04 02:35:41;;;;;;;7.03;4.93;;;5.50;98.10;;;;;;5034975;28;20449;-64
2021/04/04 02:38:15;;;;;;;6.30;4.80;;;5.40;97.80;;;;;;5034171;28;20828;-63
2021/04/04 02:40:44;;;;;;;6.13;4.63;;;5.40;98.00;;;;;;5034574;28;20383;-62
2021/04/04 02:43:23;;;;;;;6.50;4.70;;;5.30;98.20;;;;;;5037958;28;20456;-63
2021/04/04 02:45:50;;;;;;;5.23;4.17;;;5.50;98.20;;;;;;5045304;28;20467;-64
2021/04/04 02:48:17;;;;;;;5.70;3.90;;;5.50;98.30;;;;;;5033857;28;20406;-62
2021/04/04 02:50:46;;;;;;;4.80;4.10;;;5.40;98.30;;;;;;5034434;28;20398;-62
2021/04/04 02:53:12;;;;;;;4.43;3.73;;;5.40;98.60;;;;;;5034231;28;20417;-62
2021/04/04 02:55:39;;;;;;;7.13;3.93;;;5.40;98.70;;;;;;5034373;28;20457;-63
2021/04/04 02:58:07;;;;;;;7.63;4.43;;;5.30;98.80;;;;;;5033989;28;20457;-62
2021/04/04 03:00:34;;;;;;;4.90;4.00;;;5.20;98.90;;;;;;5034526;28;20406;-63
2021/04/04 03:03:01;;;;;;;6.70;4.80;;;5.20;98.90;;;;;;5034151;28;20398;-62
2021/04/04 03:05:28;;;;;;;5.63;4.10;;;5.10;98.80;;;;;;5034005;28;20426;-63
2021/04/04 03:07:56;;;;;;;5.80;4.33;;;5.10;99.00;;;;;;5058433;23;20580;-58
2021/04/04 03:10:22;;;;;;;25.10;5.20;;;5.10;99.20;;;;;;5034027;28;20402;-62
2021/04/04 03:12:50;;;;;;;7.57;4.40;;;5.10;99.20;;;;;;5034663;28;20399;-62
2021/04/04 03:15:17;;;;;;;10.07;4.47;;;5.10;99.00;;;;;;5034514;28;20428;-62
2021/04/04 03:17:45;;;;;;;5.27;3.90;;;5.00;99.20;;;;;;5034136;28;20418;-62
2021/04/04 03:20:13;;;;;;;5.23;3.60;;;5.10;99.10;;;;;;5034233;28;20409;-62
2021/04/04 03:22:43;;;;;;;7.23;3.73;;;5.00;99.00;;;;;;5033979;28;20402;-62
2021/04/04 03:25:10;;;;;;;7.30;4.10;;;5.00;99.40;;;;;;5033922;28;20402;-61
2021/04/04 03:27:37;;;;;;;5.33;3.57;;;5.00;99.10;;;;;;5033970;28;20425;-62
2021/04/04 03:30:08;;;;;;;4.83;3.47;;;5.00;99.00;;;;;;5032764;28;20406;-62
2021/04/04 03:32:35;;;;;;;5.20;4.50;;;4.90;99.40;;;;;;5034556;28;20421;-62
2021/04/04 03:35:04;;;;;;;10.93;5.43;;;4.90;99.50;;;;;;5033931;28;20473;-62
2021/04/04 03:37:31;;;;;;;6.37;4.50;;;5.00;99.20;;;;;;5033567;28;20434;-62
2021/04/04 03:39:57;;;;;;;9.57;4.33;;;4.90;99.00;;;;;;5033688;28;20843;-62
2021/04/04 03:42:26;;;;;;;4.70;4.00;;;5.00;99.10;;;;;;5033258;28;20494;-62
2021/04/04 03:44:53;;;;;;;5.60;3.83;;;5.00;99.50;;;;;;5034098;28;20401;-62
2021/04/04 03:47:19;;;;;;;4.57;4.10;;;5.00;99.50;;;;;;5034696;28;20448;-63
2021/04/04 03:49:45;;;;;;;6.90;4.20;;;5.00;99.40;;;;;;5038491;28;20406;-61
2021/04/04 03:52:13;;;;;;;5.93;3.97;;;5.00;99.20;;;;;;5033731;28;20655;-62
2021/04/04 03:54:39;;;;;;;5.53;4.03;;;4.80;99.30;;;;;;5033538;28;20406;-62
2021/04/04 03:57:07;;;;;;;4.33;3.63;;;4.80;99.60;;;;;;5033493;28;20453;-62
2021/04/04 03:59:34;;;;;;;6.53;4.30;;;4.90;99.50;;;;;;5033594;28;20937;-62
2021/04/04 04:02:01;;;;;;;5.37;3.70;;;4.90;99.50;;;;;;5033496;28;20394;-62
2021/04/04 04:04:27;;;;;;;8.70;5.30;;;4.90;99.70;;;;;;5033443;28;20770;-62
2021/04/04 04:06:55;;;;;;;5.90;3.90;;;5.00;99.70;;;;;;5032883;28;20553;-62
2021/04/04 04:09:21;;;;;;;6.00;3.80;;;5.10;99.40;;;;;;5033340;28;20413;-63
2021/04/04 04:11:48;;;;;;;7.30;4.17;;;5.10;99.40;;;;;;5033645;28;20410;-62
2021/04/04 04:14:19;;;;;;;6.40;3.73;;;5.00;99.50;;;;;;5033678;28;20460;-62
2021/04/04 04:16:45;;;;;;;5.70;3.83;;;5.00;99.60;;;;;;5033859;28;20460;-63
2021/04/04 04:19:12;;;;;;;5.30;4.07;;;5.00;99.70;;;;;;5034127;28;20406;-63
2021/04/04 04:21:40;;;;;;;7.57;4.07;;;5.00;99.70;;;;;;5033396;28;20250;-62
2021/04/04 04:24:10;;;;;;;5.60;3.67;;;4.90;99.90;;;;;;5033640;28;20930;-63
2021/04/04 04:26:40;;;;;;;4.30;3.40;;;4.90;99.90;;;;;;5033517;28;20461;-63
2021/04/04 04:29:07;;;;;;;4.93;3.70;;;4.90;99.90;;;;;;5034136;28;20401;-63
2021/04/04 04:31:36;;;;;;;8.20;4.10;;;5.00;99.90;;;;;;5033282;28;20751;-63
2021/04/04 04:34:04;;;;;;;7.33;4.03;;;5.00;99.90;;;;;;5034068;28;20492;-63
2021/04/04 04:36:31;;;;;;;7.53;4.50;;;4.80;99.90;;;;;;5035599;28;20466;-63
2021/04/04 04:38:58;;;;;;;5.37;4.10;;;4.80;99.90;;;;;;5032971;28;20460;-63
2021/04/04 04:41:24;;;;;;;10.10;7.20;;;4.80;99.90;;;;;;5033504;28;20781;-63
2021/04/04 04:43:56;;;;;;;16.07;11.80;;;4.80;99.90;;;;;;5033726;28;20406;-63
2021/04/04 04:46:23;;;;;;;12.20;8.80;;;4.80;99.90;;;;;;5033482;28;20925;-63
2021/04/04 04:48:49;;;;;;;10.80;8.70;;;4.80;99.90;;;;;;5033031;28;20410;-63
2021/04/04 04:51:21;;;;;;;11.33;8.37;;;4.90;99.90;;;;;;5032682;28;20398;-63
2021/04/04 04:53:48;;;;;;;9.40;7.33;;;4.80;99.90;;;;;;5033595;28;20401;-63
2021/04/04 04:56:15;;;;;;;7.10;5.47;;;4.90;99.90;;;;;;5036998;28;20969;-63
2021/04/04 04:58:42;;;;;;;6.63;5.30;;;4.80;99.90;;;;;;5037262;28;20402;-63
2021/04/04 05:01:11;;;;;;;8.80;6.43;;;4.60;99.90;;;;;;5036978;28;20426;-62
2021/04/04 05:03:37;;;;;;;7.93;5.60;;;4.70;99.90;;;;;;5036542;28;20413;-62
2021/04/04 05:06:07;;;;;;;5.47;4.60;;;4.70;99.90;;;;;;5036351;28;20492;-62
2021/04/04 05:08:33;;;;;;;9.60;5.20;;;4.80;99.90;;;;;;5036125;28;20221;-62
2021/04/04 05:11:03;;;;;;;10.60;5.03;;;4.80;99.90;;;;;;5038888;28;20954;-60
2021/04/04 05:13:31;;;;;;;6.60;4.37;;;4.80;99.90;;;;;;5039016;28;20408;-60
2021/04/04 05:15:57;;;;;;;6.40;4.30;;;4.80;99.90;;;;;;5040742;28;20445;-59
2021/04/04 05:18:23;;;;;;;6.10;4.50;;;4.70;99.90;;;;;;5040844;28;20770;-59
2021/04/04 05:20:49;;;;;;;6.87;4.30;;;4.70;99.90;;;;;;5038919;28;20402;-59
2021/04/04 05:23:22;;;;;;;6.80;4.53;;;4.60;99.90;;;;;;5040906;28;20167;-60
2021/04/04 05:25:50;;;;;;;7.60;4.70;;;4.70;99.90;;;;;;5040885;28;20199;-60
2021/04/04 05:28:15;;;;;;;5.53;4.30;;;4.70;99.90;;;;;;5039148;28;20413;-60
2021/04/04 05:30:41;;;;;;;6.00;3.80;;;4.80;99.90;;;;;;5038921;28;20892;-60
2021/04/04 05:33:07;;;;;;;6.00;4.50;;;4.80;99.90;;;;;;5038804;28;20174;-60
2021/04/04 05:35:38;;;;;;;5.73;4.13;;;4.70;99.90;;;;;;5038052;28;20194;-60
2021/04/04 05:38:04;;;;;;;10.97;4.87;;;4.80;99.90;;;;;;5042857;28;20580;-59
2021/04/04 05:40:30;;;;;;;8.73;4.37;;;4.90;99.90;;;;;;5054143;28;20420;-60
2021/04/04 05:42:59;;;;;;;7.97;5.00;;;5.00;99.90;;;;;;5058348;28;20401;-60
2021/04/04 05:46:00;;;;;;;6.10;4.23;;;4.90;99.90;;;;;;5057965;28;20901;-60
2021/04/04 05:48:39;;;;;;;6.13;4.53;;;5.00;99.90;;;;;;5057952;28;20763;-59
2021/04/04 05:51:29;;;;;;;5.70;3.70;;;5.00;99.90;;;;;;5058088;28;20381;-60
2021/04/04 05:54:13;;;;;;;9.40;4.83;;;5.00;99.90;;;;;;5057715;28;20381;-60
2021/04/04 05:56:50;;;;;;;6.93;4.70;;;5.00;99.90;;;;;;5057288;28;20461;-60
2021/04/04 05:59:45;;;;;;;8.07;5.07;;;5.10;99.90;;;;;;5058321;28;20808;-60
2021/04/04 06:02:48;;;;;;;8.53;4.90;;;5.20;99.90;;;;;;5058053;28;20390;-61
2021/04/04 06:05:52;;;;;;;6.53;4.53;;;5.20;99.90;;;;;;5057738;28;20772;-60
2021/04/04 06:08:21;;;;;;;9.70;5.10;;;5.40;99.90;;;;;;5006903;28;20438;-60
2021/04/04 06:11:08;;;;;;;9.00;5.60;;;5.40;99.90;;;;;;5017587;28;20442;-59
2021/04/04 06:13:57;;;;;;;7.63;5.50;;;5.50;99.90;;;;;;5017793;28;20406;-60
2021/04/04 06:16:41;;;;;;;8.93;5.57;;;5.60;99.90;;;;;;5017697;28;20491;-60
2021/04/04 06:19:45;;;;;;;9.00;6.50;;;5.60;99.90;;;;;;5018363;28;20470;-60
2021/04/04 06:22:21;;;;;;;10.17;6.13;;;5.70;99.90;;;;;;5017318;28;20394;-59
2021/04/04 06:24:52;;;;;;;6.00;5.33;;;5.70;99.90;;;;;;5017332;28;20387;-59
2021/04/04 06:27:37;;;;;;;8.97;7.50;;;5.70;99.90;;;;;;5017847;28;20408;-60
2021/04/04 06:33:33;;;;;;;10.30;7.57;;;6.00;99.90;;;;;;4996074;28;20412;-60
2021/04/04 06:36:33;;;;;;;10.27;6.90;;;6.10;99.90;;;;;;5014112;28;20856;-60
2021/04/04 06:39:16;;;;;;;10.73;8.40;;;6.30;99.90;;;;;;5039900;28;20953;-61
2021/04/04 06:41:53;;;;;;;8.67;7.70;;;6.30;99.90;;;;;;5037643;28;20375;-60
2021/04/04 06:44:41;;;;;;;9.73;7.10;;;6.40;99.90;;;;;;5037516;28;20398;-60
2021/04/04 06:47:33;;;;;;;9.00;7.83;;;6.50;99.90;;;;;;5037339;28;20939;-60
2021/04/04 06:50:08;;;;;;;11.47;8.10;;;6.60;99.80;;;;;;5037248;28;20391;-60
2021/04/04 06:53:01;;;;;;;9.10;7.80;;;6.70;99.40;;;;;;5036653;28;20765;-61
2021/04/04 06:55:45;;;;;;;10.57;7.43;;;6.90;99.30;;;;;;5036733;28;20433;-61
2021/04/04 06:58:26;;;;;;;11.83;7.93;;;7.00;99.00;;;;;;5036530;28;20479;-60
2021/04/04 07:01:04;;;;;;;11.67;8.30;;;7.10;98.80;;;;;;5037174;28;20375;-60
2021/04/04 07:03:45;;;;;;;10.30;6.40;;;7.20;98.70;;;;;;5036689;28;20475;-60
2021/04/04 07:06:25;;;;;;;11.10;7.23;;;7.30;98.10;;;;;;5036309;28;20419;-60
2021/04/04 07:09:04;;;;;;;10.10;7.10;;;7.20;95.90;;;;;;5036062;28;20402;-61
2021/04/04 07:11:51;;;;;;;12.57;6.53;;;7.10;95.60;;;;;;5036526;28;20867;-60
2021/04/04 07:14:22;;;;;;;10.00;7.87;;;7.00;95.70;;;;;;5036718;28;20434;-60
2021/04/04 07:17:10;;;;;;;10.03;7.90;;;7.00;95.90;;;;;;5036216;28;20961;-60
2021/04/04 07:19:42;;;;;;;9.30;7.80;;;7.30;95.70;;;;;;5036516;28;20751;-61
2021/04/04 07:22:22;;;;;;;9.60;7.27;;;7.20;95.40;;;;;;5036323;28;20411;-61
2021/04/04 07:24:53;;;;;;;10.83;8.00;;;7.40;95.10;;;;;;5036186;28;20791;-60
2021/04/04 07:27:36;;;;;;;11.93;7.87;;;7.30;95.10;;;;;;5036169;28;20429;-61
2021/04/04 07:30:31;;;;;;;10.90;7.87;;;7.50;95.30;;;;;;5040540;28;20567;-61
2021/04/04 07:33:17;;;;;;;8.30;7.50;;;7.90;94.90;;;;;;5015324;28;20427;-61
2021/04/04 07:36:01;;;;;;;12.20;8.47;;;7.90;94.50;;;;;;5016178;28;20441;-61
2021/04/04 07:38:37;;;;;;;11.33;8.03;;;7.90;94.20;;;;;;5015224;28;20386;-63
2021/04/04 07:41:08;;;;;;;9.00;7.33;;;7.80;94.30;;;;;;5015698;28;20757;-61
2021/04/04 07:44:11;;;;;;;11.43;8.30;;;7.90;94.30;;;;;;5016465;28;20391;-61
2021/04/04 07:46:59;;;;;;;8.00;6.63;;;8.00;94.20;;;;;;5012702;28;20445;-60
2021/04/04 07:50:00;;;;;;;7.43;6.67;;;8.10;93.80;;;;;;5016443;28;20745;-61
2021/04/04 07:52:51;;;;;;;8.73;6.83;;;8.20;93.60;;;;;;5016661;28;20411;-61
2021/04/04 07:55:19;;;;;;;8.70;6.90;;;8.40;93.20;;;;;;5016210;28;20413;-61
2021/04/04 07:58:11;;;;;;;8.53;7.53;;;8.40;92.80;;;;;;5016057;28;20422;-61
2021/04/04 08:00:43;;;;;;;7.33;6.47;;;8.40;92.90;;;;;;5016689;28;20388;-62
2021/04/04 08:03:14;;;;;;;12.23;6.97;;;8.50;92.80;;;;;;5016286;28;20399;-61
2021/04/04 08:05:46;;;;;;;8.87;7.27;;;8.70;92.30;;;;;;5016141;28;20893;-62
2021/04/04 08:08:35;;;;;;;10.00;7.60;;;8.80;92.10;;;;;;5034049;28;20816;-61
2021/04/04 08:11:38;;;;;;;10.80;7.70;;;8.70;92.30;;;;;;5035726;28;20426;-62
2021/04/04 08:14:07;;;;;;;11.97;8.50;;;8.90;92.10;;;;;;5036441;28;20404;-61
2021/04/04 08:16:38;;;;;;;10.77;7.27;;;8.90;92.10;;;;;;5036076;28;20541;-61
2021/04/04 08:19:04;;;;;;;8.33;7.17;;;8.90;92.10;;;;;;5036724;28;20399;-61
2021/04/04 08:21:37;;;;;;;9.00;7.30;;;8.90;92.10;;;;;;5036664;28;20871;-61
2021/04/04 08:24:22;;;;;;;12.47;8.10;;;9.00;92.10;;;;;;5035501;28;20162;-61
2021/04/04 08:26:59;;;;;;;13.87;7.77;;;9.20;91.80;;;;;;5039055;28;20433;-60
2021/04/04 08:29:46;;;;;;;10.03;6.73;;;9.20;91.50;;;;;;5041238;28;20391;-61
2021/04/04 08:32:21;;;;;;;12.20;8.13;;;9.30;91.60;;;;;;5048717;28;20393;-61
2021/04/04 08:34:52;;;;;;;8.40;7.17;;;9.60;91.30;;;;;;5047274;28;20395;-61
2021/04/04 08:37:31;;;;;;;9.00;7.00;;;9.40;91.40;;;;;;5053597;28;20471;-60
2021/04/04 08:40:04;;;;;;;9.97;7.73;;;9.60;91.10;;;;;;5039769;28;20382;-61
2021/04/04 08:42:32;;;;;;;9.57;7.00;;;9.70;91.00;;;;;;5040191;28;20449;-60
2021/04/04 08:45:32;;;;;;;8.47;6.50;;;9.90;90.70;;;;;;5039831;28;20485;-61
2021/04/04 08:47:58;;;;;;;9.57;7.70;;;10.00;89.30;;;;;;5037637;28;20527;-59
2021/04/04 08:50:26;;;;;;;22.40;7.90;;;9.90;90.20;;;;;;5039571;28;20405;-61
2021/04/04 08:52:58;;;;;;;11.30;8.37;;;10.00;89.40;;;;;;5039450;28;20437;-61
2021/04/04 08:55:27;;;;;;;9.20;7.23;;;10.00;89.40;;;;;;5039352;28;20447;-61
2021/04/04 08:57:55;;;;;;;8.40;7.53;;;10.10;89.00;;;;;;5037980;28;20871;-61
2021/04/04 09:00:23;;;;;;;8.13;7.27;;;10.20;88.60;;;;;;5038960;28;20500;-61
2021/04/04 09:03:07;;;;;;;8.60;6.97;;;10.20;88.30;;;;;;5039077;28;20401;-61
2021/04/04 09:05:34;;;;;;;8.73;6.33;;;10.30;89.90;;;;;;5039353;28;20429;-61
2021/04/04 09:08:02;;;;;;;7.67;6.80;;;10.40;87.80;;;;;;5086584;22;20490;-61
2021/04/04 09:10:36;;;;;;;12.80;7.73;;;10.50;87.10;;;;;;5055982;28;20408;-61
2021/04/04 09:13:13;;;;;;;8.00;7.20;;;10.60;86.70;;;;;;5056532;28;20457;-61
2021/04/04 09:15:59;;;;;;;10.90;7.60;;;10.70;86.80;;;;;;5056397;28;20444;-61
2021/04/04 09:18:26;;;;;;;10.47;6.83;;;10.80;86.20;;;;;;5056158;28;20506;-61
2021/04/04 09:21:05;;;;;;;5.67;4.93;;;10.90;84.80;;;;;;5056228;28;20454;-61
2021/04/04 09:23:32;;;;;;;7.33;5.13;;;10.90;81.40;;;;;;5055780;28;20387;-62
2021/04/04 09:26:03;;;;;;;7.80;6.50;;;10.80;80.80;;;;;;5055941;28;20405;-62
2021/04/04 09:28:33;;;;;;;9.37;6.07;;;11.00;82.30;;;;;;5053421;28;20443;-62
2021/04/04 09:31:00;;;;;;;7.67;5.43;;;11.00;82.10;;;;;;5052021;28;20421;-61
2021/04/04 09:33:29;;;;;;;6.87;5.00;;;11.00;81.10;;;;;;5056103;28;20408;-62
2021/04/04 09:36:04;;;;;;;5.40;4.90;;;11.00;77.90;;;;;;5055861;28;20443;-62
2021/04/04 09:38:38;;;;;;;7.27;5.37;;;11.10;78.80;;;;;;5055287;28;20425;-63
2021/04/04 09:41:05;;;;;;;7.63;3.70;;;11.40;79.60;;;;;;5050834;28;20948;-63
2021/04/04 09:43:56;;;;;;;5.70;4.03;;;11.50;74.20;;;;;;5055645;28;20405;-62
2021/04/04 09:46:22;;;;;;;3.53;3.10;;;11.50;74.60;;;;;;5055859;28;20451;-64
2021/04/04 09:48:47;;;;;;;3.47;3.17;;;11.60;71.70;;;;;;5055521;28;20405;-62
2021/04/04 09:51:16;;;;;;;4.70;4.03;;;11.60;69.70;;;;;;5055446;28;20167;-62
2021/04/04 09:53:46;;;;;;;3.87;3.30;;;11.60;70.50;;;;;;5055457;28;20186;-63
2021/04/04 09:56:14;;;;;;;3.80;3.40;;;12.00;71.80;;;;;;5055160;28;20443;-63
2021/04/04 09:58:45;;;;;;;9.03;4.23;;;12.10;68.40;;;;;;5055290;28;20425;-61
2021/04/04 10:01:16;;;;;;;5.00;4.17;;;12.10;71.90;;;;;;5055551;28;20397;-62
2021/04/04 10:03:52;;;;;;;6.40;4.43;;;12.20;69.50;;;;;;5055716;28;20896;-62
2021/04/04 10:06:18;;;;;;;5.77;4.67;;;12.40;70.10;;;;;;5055090;28;20765;-62
2021/04/04 10:08:53;;;;;;;5.70;4.93;;;12.40;70.00;;;;;;5054519;28;20478;-62
2021/04/04 10:11:19;;;;;;;6.73;4.53;;;12.40;69.60;;;;;;5055236;28;20163;-62
2021/04/04 10:13:45;;;;;;;4.63;3.70;;;12.40;67.50;;;;;;5055180;28;20429;-62
2021/04/04 10:16:23;;;;;;;5.50;3.83;;;12.40;69.20;;;;;;5055268;28;20488;-62
2021/04/04 10:19:04;;;;;;;3.60;2.40;;;12.50;67.00;;;;;;5055131;28;20171;-62
2021/04/04 10:21:31;;;;;;;2.77;2.53;;;12.40;60.10;;;;;;5054903;28;20415;-62
2021/04/04 10:23:57;;;;;;;2.63;2.43;;;12.30;59.20;;;;;;5054879;28;20489;-62
2021/04/04 10:26:23;;;;;;;7.30;3.70;;;12.30;58.30;;;;;;5055286;28;20491;-61
2021/04/04 10:28:59;;;;;;;5.33;3.90;;;12.50;62.10;;;;;;5037973;28;20184;-61
2021/04/04 10:31:25;;;;;;;4.40;3.63;;;12.30;62.10;;;;;;5055284;28;20397;-61
2021/04/04 10:34:02;;;;;;;5.77;3.70;;;12.20;63.70;;;;;;5054824;28;20504;-62
2021/04/04 10:36:29;;;;;;;4.80;4.23;;;12.40;60.80;;;;;;5054594;28;20334;-60
2021/04/04 10:38:56;;;;;;;4.53;3.80;;;12.20;62.10;;;;;;5056924;28;20782;-61
2021/04/04 10:41:30;;;;;;;5.77;4.03;;;11.80;64.40;;;;;;5054865;28;20410;-61
2021/04/04 10:43:56;;;;;;;4.57;4.07;;;11.90;64.00;;;;;;5054696;28;20794;-61
2021/04/04 10:46:27;;;;;;;6.83;4.50;;;12.00;65.00;;;;;;5054873;28;20847;-63
2021/04/04 10:48:55;;;;;;;4.60;3.63;;;12.30;65.20;;;;;;5054589;28;20449;-61
2021/04/04 10:51:21;;;;;;;4.33;3.83;;;13.00;61.30;;;;;;5054327;28;20411;-62
2021/04/04 10:53:48;;;;;;;6.60;3.83;;;14.20;59.40;;;;;;5053873;28;20954;-62
2021/04/04 10:56:14;;;;;;;6.37;3.80;;;15.30;57.70;;;;;;5054253;28;20635;-62
2021/04/04 10:58:41;;;;;;;5.07;4.33;;;16.70;55.90;;;;;;5054111;28;20422;-62
2021/04/04 11:01:10;;;;;;;5.70;3.53;;;18.00;52.60;;;;;;5054398;28;20772;-62
2021/04/04 11:03:37;;;;;;;3.70;3.30;;;18.50;48.50;;;;;;5054359;28;20441;-62
2021/04/04 11:06:03;;;;;;;7.10;3.40;;;18.90;47.70;;;;;;5054057;28;20408;-62
2021/04/04 11:08:28;;;;;;;6.30;3.43;;;19.90;45.90;;;;;;5053592;28;20544;-62
2021/04/04 11:10:55;;;;;;;5.40;3.20;;;19.80;45.60;;;;;;5054263;28;20186;-62
2021/04/04 11:13:22;;;;;;;4.03;3.60;;;19.80;45.00;;;;;;5055012;28;20198;-62
2021/04/04 11:16:00;;;;;;;3.70;3.40;;;19.70;45.50;;;;;;5054117;28;20455;-62
2021/04/04 11:18:37;;;;;;;3.50;3.20;;;20.90;42.90;;;;;;5054478;28;20467;-62
2021/04/04 11:21:07;;;;;;;4.77;3.10;;;21.50;41.60;;;;;;5054089;28;20458;-62
2021/04/04 11:23:33;;;;;;;4.47;3.33;;;21.80;40.70;;;;;;5053757;28;20492;-63
2021/04/04 11:25:59;;;;;;;5.03;3.33;;;21.70;40.10;;;;;;5053485;28;20499;-62
2021/04/04 11:28:26;;;;;;;3.90;2.83;;;21.90;41.30;;;;;;5053881;28;20461;-62
2021/04/04 11:30:53;;;;;;;4.03;3.23;;;22.70;39.60;;;;;;5053629;28;20249;-62
2021/04/04 11:33:23;;;;;;;6.10;3.73;;;23.40;37.50;;;;;;5053514;28;20409;-62
2021/04/04 11:36:11;;;;;;;4.20;3.50;;;23.60;37.90;;;;;;5053311;28;20512;-62
2021/04/04 11:38:57;;;;;;;4.63;3.57;;;21.70;37.50;;;;;;5053073;28;20921;-62
2021/04/04 11:41:25;;;;;;;4.07;3.60;;;21.50;38.40;;;;;;5052822;28;20405;-62
2021/04/04 11:43:54;;;;;;;3.70;3.30;;;22.60;38.00;;;;;;5054095;28;20416;-62
2021/04/04 11:46:50;;;;;;;5.43;3.83;;;22.90;37.40;;;;;;5053584;28;20742;-62
2021/04/04 11:49:31;;;;;;;4.47;3.00;;;21.60;37.70;;;;;;5053717;28;20813;-62
2021/04/04 11:52:01;;;;;;;3.80;3.37;;;22.10;38.00;;;;;;5052957;28;20397;-63
2021/04/04 11:54:50;;;;;;;3.57;3.27;;;22.20;38.00;;;;;;5053327;28;20419;-62
2021/04/04 11:57:20;;;;;;;5.10;3.63;;;22.50;37.70;;;;;;5053353;28;20456;-62
2021/04/04 11:59:48;;;;;;;4.90;4.00;;;23.10;36.60;;;;;;5053141;28;20443;-62
2021/04/04 12:02:16;;;;;;;4.43;3.40;;;23.60;37.10;;;;;;5053224;28;20916;-62
2021/04/04 12:04:48;;;;;;;4.80;3.30;;;23.30;37.00;;;;;;5052450;28;20488;-63
2021/04/04 12:07:16;;;;;;;5.60;4.00;;;24.20;35.80;;;;;;5052707;28;20468;-62
2021/04/04 12:09:47;;;;;;;4.10;3.70;;;22.00;36.40;;;;;;5053378;28;20404;-62
2021/04/04 12:12:13;;;;;;;4.97;3.77;;;22.00;37.20;;;;;;5052665;28;20420;-62
2021/04/04 12:14:54;;;;;;;3.40;3.10;;;23.00;36.60;;;;;;5052747;28;20906;-62
2021/04/04 12:17:30;;;;;;;6.57;3.40;;;22.20;36.80;;;;;;5053069;28;20867;-62
2021/04/04 12:19:58;;;;;;;6.63;3.23;;;22.50;36.60;;;;;;5053007;28;20455;-62
2021/04/04 12:22:38;;;;;;;3.53;3.23;;;23.10;36.10;;;;;;5052749;28;20964;-63
2021/04/04 12:25:12;;;;;;;4.20;3.20;;;22.90;35.40;;;;;;5052993;28;20397;-64
2021/04/04 12:27:40;;;;;;;4.10;3.40;;;23.50;36.00;;;;;;5052878;28;20468;-63
2021/04/04 12:30:14;;;;;;;4.73;3.33;;;24.70;34.40;;;;;;5053160;28;20416;-63
2021/04/04 12:32:40;;;;;;;5.53;3.93;;;23.40;34.60;;;;;;5051941;28;20417;-64
2021/04/04 12:35:07;;;;;;;4.60;3.57;;;24.00;34.80;;;;;;5052879;28;20780;-63
2021/04/04 12:37:36;;;;;;;3.93;2.70;;;24.20;35.10;;;;;;5052260;28;20461;-64
2021/04/04 12:40:05;;;;;;;4.70;3.00;;;25.60;33.30;;;;;;5052388;28;20413;-61
2021/04/04 12:42:33;;;;;;;4.23;3.23;;;26.20;32.60;;;;;;5053076;28;20920;-64
2021/04/04 12:45:03;;;;;;;5.17;3.37;;;25.80;32.90;;;;;;5053412;28;20401;-64
2021/04/04 12:47:28;;;;;;;4.07;3.60;;;26.00;33.20;;;;;;5054966;28;20433;-63
2021/04/04 12:50:08;;;;;;;4.13;3.40;;;26.90;32.50;;;;;;5052914;28;20472;-63
2021/04/04 12:52:43;;;;;;;4.20;3.30;;;25.10;33.20;;;;;;5032779;28;20167;-63
2021/04/04 12:55:28;;;;;;;4.50;4.07;;;25.20;34.30;;;;;;5032390;28;20405;-63
2021/04/04 12:57:57;;;;;;;6.37;3.50;;;25.20;33.60;;;;;;5032712;28;20866;-63
2021/04/04 13:00:28;;;;;;;4.83;3.13;;;25.40;32.80;;;;;;5032574;28;20398;-63
2021/04/04 13:02:59;;;;;;;3.97;2.93;;;25.10;32.70;;;;;;5032724;28;20484;-63
2021/04/04 13:05:31;;;;;;;4.23;3.07;;;25.30;33.20;;;;;;5033083;28;20451;-62
2021/04/04 13:07:57;;;;;;;2.90;2.60;;;24.20;34.00;;;;;;5044497;28;20513;-63
2021/04/04 13:10:22;;;;;;;4.50;3.17;;;24.20;34.30;;;;;;5052496;28;20882;-63
2021/04/04 13:12:48;;;;;;;5.60;3.30;;;24.40;33.60;;;;;;5052468;28;20584;-62
2021/04/04 13:15:30;;;;;;;3.00;2.53;;;23.10;33.90;;;;;;5053840;28;20177;-62
2021/04/04 13:17:56;;;;;;;4.80;3.30;;;24.60;32.80;;;;;;5056157;28;20236;-63
2021/04/04 13:20:24;;;;;;;3.70;3.13;;;24.60;32.60;;;;;;5056249;28;20464;-63
2021/04/04 13:22:50;;;;;;;4.03;3.60;;;25.50;31.90;;;;;;5055982;28;20225;-63